Springbrook, Wisconsin
Current Conditions -  °F | °C
As of 1:53 AM on Thursday 23 Oct 2014 (Local Time) from KHYR Reporting Station
Overcast Overcast  
Wind Chill: 44°   Ceiling: 10000
Heat Index: 48°   Visibility: 10mi
Dew Point: 40°   Wind: 8mph
Humidity: 74%   Direction: 160°SSE
Pressure: 30.05"   Gusts: NA
Location:  45.95°N, 91.69°W
Report Text: KHYR 230653Z AUTO 16007KT 10SM OVC100 09/04 A3005 RMK AO2 RAB27E40 SLP180 P0000 T00890044
Loading
Personal Weather Stations






























Interactive Weather Map
Tropical Storm Tracking
New forecast layout! Learn more

10-Day Weather Forecast

Advertisements
Track Severe Weather on mobile